createdAt,value
2023-03-07T00:00:00.889Z,33.63
2023-03-07T00:02:27.995Z,33.15
2023-03-07T00:04:55.708Z,31.90
2023-03-07T00:07:22.667Z,30.42
2023-03-07T00:09:49.589Z,31.27
2023-03-07T00:12:16.653Z,32.42
2023-03-07T00:14:43.561Z,32.85
2023-03-07T00:17:10.570Z,34.90
2023-03-07T00:19:37.572Z,35.17
2023-03-07T00:22:04.606Z,33.53
2023-03-07T00:24:31.811Z,33.65
2023-03-07T00:26:58.743Z,34.35
2023-03-07T00:29:25.692Z,34.55
2023-03-07T00:31:52.628Z,38.55
2023-03-07T00:34:19.646Z,35.53
2023-03-07T00:36:46.774Z,36.17
2023-03-07T00:39:14.638Z,34.85
2023-03-07T00:41:41.552Z,35.03
2023-03-07T00:44:08.509Z,33.15
2023-03-07T00:46:35.448Z,35.42
2023-03-07T00:49:02.594Z,36.63
2023-03-07T00:51:29.616Z,35.05
2023-03-07T00:53:56.893Z,32.92
2023-03-07T00:56:25.929Z,35.80
2023-03-07T00:58:53.200Z,33.53
2023-03-07T01:01:23.447Z,35.00
2023-03-07T01:03:53.771Z,34.13
2023-03-07T01:06:23.633Z,34.33
2023-03-07T01:08:51.323Z,33.80
2023-03-07T01:11:18.525Z,32.03
2023-03-07T01:13:45.920Z,34.53
2023-03-07T01:16:20.252Z,35.75
2023-03-07T01:18:53.727Z,36.15
2023-03-07T01:23:54.456Z,32.38
2023-03-07T01:26:24.005Z,33.45
2023-03-07T01:28:52.564Z,33.00
2023-03-07T01:31:20.588Z,35.90
2023-03-07T01:33:48.850Z,35.15
2023-03-07T01:36:22.469Z,36.22
2023-03-07T01:38:50.303Z,36.28
2023-03-07T01:41:17.640Z,37.67
2023-03-07T01:43:47.398Z,35.38
2023-03-07T01:46:17.992Z,35.50
2023-03-07T01:48:54.060Z,36.17
2023-03-07T01:51:21.499Z,36.35
2023-03-07T01:53:53.554Z,37.72
2023-03-07T01:56:22.461Z,38.20
2023-03-07T01:58:50.550Z,36.58
2023-03-07T02:01:18.175Z,37.88
2023-03-07T02:03:59.870Z,37.30
2023-03-07T02:06:28.796Z,36.03
2023-03-07T02:08:56.927Z,38.00
2023-03-07T02:11:24.778Z,37.45
2023-03-07T02:13:52.985Z,38.88
2023-03-07T02:16:20.465Z,38.10
2023-03-07T02:18:50.131Z,37.40
2023-03-07T02:21:23.014Z,38.42
2023-03-07T02:24:08.524Z,37.00
2023-03-07T06:41:20.073Z,26.77
2023-03-07T06:43:52.920Z,24.90
2023-03-07T06:46:25.726Z,26.15
2023-03-07T06:48:55.222Z,27.05
2023-03-07T06:51:23.467Z,35.83
2023-03-07T06:53:54.036Z,37.08
2023-03-07T06:56:21.032Z,38.08
2023-03-07T06:58:48.594Z,34.05
2023-03-07T07:01:21.157Z,34.30
2023-03-07T07:03:51.074Z,37.08
2023-03-07T07:06:18.757Z,35.70
2023-03-07T07:08:45.725Z,35.30
2023-03-07T07:11:12.950Z,32.13
2023-03-07T07:13:40.118Z,36.97
2023-03-07T07:16:09.575Z,35.88
2023-03-07T07:18:38.709Z,38.53
2023-03-07T07:21:07.314Z,36.22
2023-03-07T07:23:34.256Z,36.67
2023-03-07T07:26:01.768Z,32.97
2023-03-07T07:28:28.987Z,37.53
2023-03-07T07:30:56.131Z,40.00
2023-03-07T07:33:23.746Z,41.05
2023-03-07T07:35:51.492Z,42.00
2023-03-07T07:38:19.155Z,42.63
2023-03-07T07:40:46.151Z,42.58
2023-03-07T07:43:18.610Z,47.92
2023-03-07T07:45:54.095Z,46.25
2023-03-07T07:48:21.950Z,46.42
2023-03-07T07:50:49.464Z,46.03
2023-03-07T07:53:17.950Z,45.95
2023-03-07T07:55:46.177Z,46.70
2023-03-07T07:58:13.219Z,51.20
2023-03-07T08:00:40.379Z,46.78
2023-03-07T08:03:07.431Z,49.42
2023-03-07T08:05:34.425Z,50.33
2023-03-07T08:08:01.362Z,50.47
2023-03-07T08:10:28.347Z,50.10
2023-03-07T08:12:55.582Z,50.65
2023-03-07T08:15:22.659Z,55.05
2023-03-07T08:17:51.270Z,49.22
2023-03-07T08:20:22.251Z,49.38
2023-03-07T08:22:50.525Z,51.22
2023-03-07T08:25:22.528Z,51.17
2023-03-07T08:27:55.141Z,51.65
2023-03-07T08:30:24.415Z,51.88
2023-03-07T08:32:53.164Z,50.85
2023-03-07T08:35:20.365Z,50.05
2023-03-07T08:37:49.131Z,50.75
2023-03-07T08:40:16.980Z,51.60
2023-03-07T08:42:44.022Z,51.53
2023-03-07T08:45:11.626Z,52.83
2023-03-07T08:47:38.695Z,49.45
2023-03-07T08:50:06.236Z,53.45
2023-03-07T08:52:34.097Z,52.60
2023-03-07T08:55:01.004Z,52.72
2023-03-07T08:57:28.007Z,52.60
2023-03-07T08:59:55.017Z,51.55
2023-03-07T09:02:22.022Z,49.60
2023-03-07T09:04:49.836Z,49.55
2023-03-07T09:07:17.233Z,49.67
2023-03-07T09:09:44.797Z,50.35
2023-03-07T09:12:11.709Z,52.90
2023-03-07T09:14:38.732Z,54.42
2023-03-07T09:17:05.764Z,49.40
2023-03-07T09:19:32.953Z,53.08
2023-03-07T09:21:59.962Z,51.70
2023-03-07T09:24:29.773Z,47.05
2023-03-07T09:26:57.049Z,49.67
2023-03-07T09:29:24.861Z,49.05
2023-03-07T09:31:51.915Z,50.83
2023-03-07T09:34:18.866Z,51.20
2023-03-07T09:36:45.783Z,47.90
2023-03-07T09:39:16.664Z,50.63
2023-03-07T09:47:47.773Z,48.90
2023-03-07T09:50:23.288Z,47.42
2023-03-07T09:52:53.632Z,47.75
2023-03-07T09:55:21.989Z,45.70
2023-03-07T09:57:50.606Z,44.83
2023-03-07T10:05:35.583Z,44.93
2023-03-07T10:13:43.563Z,43.05
2023-03-07T10:16:16.430Z,42.30
2023-03-07T10:21:44.513Z,42.90
2023-03-07T10:35:16.185Z,38.55
2023-03-07T14:50:44.002Z,11.20
2023-03-07T14:53:29.645Z,11.82
2023-03-07T14:55:59.537Z,10.82
2023-03-07T14:58:36.178Z,11.50
2023-03-07T15:11:22.561Z,9.82
2023-03-07T15:13:52.509Z,9.30
2023-03-07T15:16:25.953Z,10.43
2023-03-07T15:21:24.842Z,11.30
2023-03-07T15:23:58.626Z,12.38
2023-03-07T15:29:02.291Z,12.35
2023-03-07T15:31:31.829Z,12.00
2023-03-07T15:34:20.307Z,12.32
2023-03-07T15:36:47.227Z,12.15
2023-03-07T15:39:43.565Z,12.05
2023-03-07T15:42:23.689Z,12.20
2023-03-07T15:45:04.939Z,14.50
2023-03-07T15:47:32.647Z,16.63
2023-03-07T15:50:03.952Z,15.27
2023-03-07T15:52:34.163Z,14.18
2023-03-07T15:55:05.450Z,14.60
2023-03-07T15:57:39.237Z,13.82
2023-03-07T16:03:33.022Z,13.88
2023-03-07T16:06:01.682Z,12.75
2023-03-07T16:08:28.832Z,13.05
2023-03-07T16:11:04.719Z,11.18
2023-03-07T16:13:42.341Z,11.68
2023-03-07T16:16:17.416Z,12.50
2023-03-07T16:18:45.586Z,11.30
2023-03-07T16:21:14.207Z,11.85
2023-03-07T16:23:41.808Z,12.57
2023-03-07T16:26:17.462Z,12.27
2023-03-07T16:28:44.618Z,12.50
2023-03-07T16:31:13.386Z,12.68
2023-03-07T16:33:40.676Z,14.48
2023-03-07T16:36:10.218Z,13.65
2023-03-07T16:38:37.403Z,13.48
2023-03-07T16:41:10.379Z,13.00
2023-03-07T16:43:38.288Z,13.27
2023-03-07T16:46:26.240Z,13.48
2023-03-07T16:48:53.252Z,13.98
2023-03-07T16:51:23.483Z,12.98
2023-03-07T16:53:51.230Z,14.23
2023-03-07T16:56:41.942Z,15.88
2023-03-07T16:59:20.946Z,15.10
2023-03-07T17:01:50.673Z,16.77
2023-03-07T17:04:18.168Z,21.58
2023-03-07T17:06:46.235Z,18.55
2023-03-07T17:09:15.742Z,20.65
2023-03-07T17:11:51.000Z,22.00
2023-03-07T17:14:19.495Z,16.40
2023-03-07T17:16:50.390Z,15.50
2023-03-07T17:19:35.162Z,17.98
2023-03-07T17:22:03.367Z,15.20
2023-03-07T17:24:31.212Z,13.05
2023-03-07T17:27:07.415Z,12.70
2023-03-07T17:30:00.646Z,10.55
2023-03-07T17:32:27.728Z,11.30
2023-03-07T17:34:54.812Z,10.30
2023-03-07T17:37:22.180Z,9.02
2023-03-07T17:39:49.124Z,7.82
2023-03-07T17:42:17.405Z,8.15
2023-03-07T17:44:44.358Z,6.95
2023-03-07T17:47:11.281Z,6.95
2023-03-07T17:49:39.401Z,7.50
2023-03-07T17:52:07.555Z,6.82
2023-03-07T17:54:35.194Z,11.00
2023-03-07T17:57:02.997Z,9.35
2023-03-07T17:59:32.316Z,10.57
2023-03-07T18:01:59.394Z,8.57
2023-03-07T18:04:28.567Z,9.23
2023-03-07T18:06:55.538Z,9.55
2023-03-07T18:09:23.340Z,7.80
2023-03-07T18:11:50.305Z,13.35
2023-03-07T18:14:17.622Z,9.82
2023-03-07T18:16:44.936Z,11.73
2023-03-07T18:19:25.386Z,11.23
2023-03-07T18:21:53.187Z,10.60
2023-03-07T18:24:21.416Z,11.25
2023-03-07T18:26:52.151Z,10.50
2023-03-07T18:29:19.751Z,10.35
2023-03-07T18:31:47.224Z,10.13
2023-03-07T18:34:15.217Z,9.75
2023-03-07T18:36:42.813Z,10.57
2023-03-07T18:39:13.810Z,12.25
2023-03-07T18:41:40.750Z,11.10
2023-03-07T18:44:08.112Z,11.48
2023-03-07T18:46:37.096Z,11.15
2023-03-07T18:49:04.190Z,10.88
2023-03-07T18:51:32.233Z,11.10
2023-03-07T18:54:01.235Z,9.82
2023-03-07T18:56:29.011Z,10.13
2023-03-07T18:58:59.465Z,9.40
2023-03-07T19:01:29.028Z,9.05
2023-03-07T19:03:57.608Z,8.23
2023-03-07T19:06:26.740Z,8.63
2023-03-07T19:08:53.856Z,8.30
2023-03-07T19:11:21.334Z,7.78
2023-03-07T19:13:49.579Z,9.63
2023-03-07T19:16:23.438Z,10.32
2023-03-07T19:18:51.521Z,8.88
2023-03-07T19:21:23.542Z,8.52
2023-03-07T19:23:51.651Z,8.68
2023-03-07T19:26:20.156Z,8.77
2023-03-07T19:28:49.572Z,9.27
2023-03-07T19:31:22.778Z,10.32
2023-03-07T19:33:50.647Z,21.10
2023-03-07T19:36:21.280Z,10.98
2023-03-07T19:38:49.961Z,13.63
2023-03-07T19:41:22.300Z,11.32
2023-03-07T19:43:52.092Z,13.88
2023-03-07T19:46:20.764Z,12.02
2023-03-07T19:48:48.258Z,11.25
2023-03-07T19:51:20.886Z,9.77
2023-03-07T19:53:47.886Z,10.57
2023-03-07T19:56:21.006Z,11.07
2023-03-07T19:58:48.089Z,11.88
2023-03-07T20:01:18.168Z,10.93
2023-03-07T20:03:45.869Z,11.52
2023-03-07T20:06:18.740Z,10.57
2023-03-07T20:11:30.438Z,10.13
2023-03-07T20:13:59.436Z,10.85
2023-03-07T20:16:29.304Z,11.50
2023-03-07T20:19:02.757Z,10.50
2023-03-07T20:21:30.464Z,10.93
2023-03-07T20:24:01.170Z,9.90
2023-03-07T20:26:35.353Z,10.50
2023-03-07T20:29:05.436Z,10.77
2023-03-07T20:31:33.264Z,11.27
2023-03-07T20:34:01.091Z,10.38
2023-03-07T20:36:30.826Z,11.32
2023-03-07T20:38:59.921Z,11.63
2023-03-07T20:41:29.567Z,11.15
2023-03-07T20:44:04.982Z,10.60
2023-03-07T20:46:33.045Z,12.05
2023-03-07T20:49:01.801Z,12.60
2023-03-07T20:51:32.005Z,13.48
2023-03-07T20:54:04.531Z,13.27
2023-03-07T20:56:33.220Z,12.60
2023-03-07T20:59:00.934Z,12.20
2023-03-07T21:01:29.812Z,15.38
2023-03-07T21:03:59.633Z,11.95
2023-03-07T21:06:26.735Z,13.23
2023-03-07T21:08:53.746Z,14.30
2023-03-07T21:11:21.505Z,14.38
2023-03-07T21:13:49.580Z,14.32
2023-03-07T21:16:19.375Z,14.57
2023-03-07T21:18:46.594Z,15.15
2023-03-07T21:21:18.894Z,15.13
2023-03-07T21:23:46.548Z,15.93
2023-03-07T21:26:14.382Z,12.98
2023-03-07T21:28:41.418Z,14.20
2023-03-07T21:31:19.296Z,16.75
2023-03-07T21:33:48.844Z,14.70
2023-03-07T21:36:18.725Z,12.88
2023-03-07T21:38:46.646Z,12.85
2023-03-07T21:41:14.614Z,13.90
2023-03-07T21:43:42.033Z,13.18
2023-03-07T21:46:11.863Z,12.55
2023-03-07T21:48:39.548Z,14.40
2023-03-07T21:51:06.846Z,13.32
2023-03-07T21:53:34.468Z,14.00
2023-03-07T21:56:04.767Z,16.02
2023-03-07T21:58:32.577Z,15.73
2023-03-07T22:00:59.779Z,18.70
2023-03-07T22:03:28.955Z,21.77
2023-03-07T22:05:57.421Z,16.77
2023-03-07T22:08:24.712Z,14.35
2023-03-07T22:11:03.417Z,13.50
2023-03-07T22:13:32.646Z,12.73
2023-03-07T22:16:02.196Z,13.38
2023-03-07T22:18:29.602Z,19.30
2023-03-07T22:20:56.765Z,16.88
2023-03-07T22:23:26.609Z,13.65
2023-03-07T22:25:53.786Z,14.80
2023-03-07T22:28:21.075Z,15.43
2023-03-07T22:30:49.449Z,14.68
2023-03-07T22:33:16.932Z,15.38
2023-03-07T22:35:43.961Z,13.55
2023-03-07T22:38:10.962Z,13.20
2023-03-07T22:40:39.361Z,13.65
2023-03-07T22:43:06.424Z,12.70
2023-03-07T22:45:33.341Z,13.63
2023-03-07T22:48:00.240Z,20.77
2023-03-07T22:50:27.346Z,16.52
2023-03-07T22:52:55.212Z,13.85
2023-03-07T22:55:22.368Z,11.88
2023-03-07T22:57:49.368Z,11.98
2023-03-07T23:00:16.643Z,13.68
2023-03-07T23:02:43.784Z,12.50
2023-03-07T23:05:11.264Z,13.63
2023-03-07T23:07:39.952Z,14.27
2023-03-07T23:10:07.028Z,12.10
2023-03-07T23:12:34.101Z,11.77
2023-03-07T23:15:01.094Z,13.18
2023-03-07T23:17:28.016Z,13.13
2023-03-07T23:19:55.037Z,12.45
2023-03-07T23:22:21.943Z,14.35
2023-03-07T23:24:48.904Z,13.05
2023-03-07T23:27:15.804Z,13.43
2023-03-07T23:29:42.736Z,14.05
2023-03-07T23:32:09.704Z,13.40
2023-03-07T23:34:36.732Z,15.90
2023-03-07T23:37:03.738Z,11.77
2023-03-07T23:39:30.708Z,11.30
2023-03-07T23:41:57.603Z,10.90
2023-03-07T23:44:24.585Z,9.68
2023-03-07T23:46:51.513Z,9.38
2023-03-07T23:49:18.460Z,9.82
2023-03-07T23:51:45.410Z,9.77
2023-03-07T23:54:12.418Z,10.60
2023-03-07T23:56:39.417Z,8.55
2023-03-07T23:59:06.406Z,9.00
